CheckWX is a tool to help pilots better visualize weather data.  It is not intended as a substitute for an official pre-flight weather briefing.

06:01:36 UTC

KSBN METAR
South Bend International Airport
South Bend, Indiana, USA
Current

1 hour ago

KSBN 200454Z AUTO 11010KT 10SM FEW120 M03/M07 A3037 RMK AO2 SLP296 T10281072 400001083
Observed
Feb-20 @ 04:54 UTC
Wind
  • 110° at 10 KTS
Visibility
16,093 meters
Flight Rules
VFR
Cloud Levels
  • Few at 12,000' AGL
Temperature
-3°C / 27°F
Dewpoint
-7°C / 19°F
Humidity
74%
Altimeter
30.37" Hg
Pressure
1029.6 hPa
Previous

2 hours ago

KSBN 200354Z 11008KT 10SM CLR M02/M08 A3040 RMK AO2 SLP307 T10221078
Observed
Feb-20 @ 03:54 UTC
Wind
  • 110° at 8 KTS
Visibility
16,093 meters
Flight Rules
VFR
Cloud Levels
  • Clear skies
Temperature
-2°C / 28°F
Dewpoint
-8°C / 18°F
Humidity
64%
Altimeter
30.4" Hg
Pressure
1030.7 hPa
Previous

3 hours ago

KSBN 200254Z 08006KT 10SM CLR M02/M08 A3042 RMK AO2 SLP312 T10221083 56025
Observed
Feb-20 @ 02:54 UTC
Wind
  • 080° at 6 KTS
Visibility
16,093 meters
Flight Rules
VFR
Cloud Levels
  • Clear skies
Temperature
-2°C / 28°F
Dewpoint
-8°C / 18°F
Humidity
64%
Altimeter
30.42" Hg
Pressure
1031.2 hPa